Time;durP1;ratioP1;P1;durP2;ratioP2;P2;SDS_P1;SDS_P2;PMS_P1;PMS_P2;Temp;Humidity;BMP_temperature;BMP_pressure;BME280_temperature;BME280_humidity;BME280_pressure;Samples;Min_cycle;Max_cycle;Signal;HPM_P1;HPM_P2
2023/04/17 00:01:46;;;;;;;40.13;32.03;;;9.30;92.00;;;;;;5058166;28;20054;-44
2023/04/17 00:04:13;;;;;;;43.63;33.60;;;9.30;92.00;;;;;;5055136;28;20033;-44
2023/04/17 00:06:43;;;;;;;43.17;34.05;;;9.30;92.10;;;;;;5055251;28;20030;-49
2023/04/17 00:09:09;;;;;;;;;;;9.30;92.20;;;;;;5024077;28;20124;-45
2023/04/17 00:11:35;;;;;;;45.08;34.50;;;9.30;92.30;;;;;;5072786;28;20023;-48
2023/04/17 00:14:01;;;;;;;43.78;33.65;;;9.30;92.30;;;;;;5072570;28;20124;-45
2023/04/17 00:16:29;;;;;;;45.47;34.97;;;9.30;92.30;;;;;;5072796;28;20036;-45
2023/04/17 00:18:56;;;;;;;44.45;34.58;;;9.30;92.30;;;;;;5089574;28;20020;-45
2023/04/17 00:21:22;;;;;;;42.28;31.85;;;9.30;92.30;;;;;;5092754;28;20307;-46
2023/04/17 00:23:48;;;;;;;41.72;35.28;;;9.30;92.30;;;;;;5088971;28;20027;-45
2023/04/17 00:26:15;;;;;;;50.95;35.67;;;9.30;92.30;;;;;;5055026;28;20048;-45
2023/04/17 00:28:42;;;;;;;43.90;34.17;;;9.30;92.30;;;;;;5072940;28;20679;-45
2023/04/17 00:31:09;;;;;;;48.85;36.17;;;9.30;92.40;;;;;;5071329;28;20111;-45
2023/04/17 00:33:35;;;;;;;40.83;33.53;;;9.30;92.30;;;;;;5074559;28;20029;-45
2023/04/17 00:36:06;;;;;;;41.38;34.17;;;9.30;92.40;;;;;;5072655;28;20430;-46
2023/04/17 00:38:33;;;;;;;43.90;34.33;;;9.30;92.40;;;;;;5084675;28;20028;-45
2023/04/17 00:41:00;;;;;;;43.92;35.88;;;9.20;92.40;;;;;;5074697;28;20325;-45
2023/04/17 00:43:28;;;;;;;48.47;37.00;;;9.20;92.30;;;;;;5092766;28;20834;-45
2023/04/17 00:45:56;;;;;;;44.80;34.28;;;9.20;92.30;;;;;;5090165;28;20049;-45
2023/04/17 00:48:24;;;;;;;47.85;36.10;;;9.20;92.40;;;;;;5046112;28;20127;-44
2023/04/17 00:50:51;;;;;;;43.17;35.25;;;9.20;92.40;;;;;;5054514;28;20048;-46
2023/04/17 00:53:19;;;;;;;44.08;35.38;;;9.20;92.40;;;;;;5054773;28;20358;-46
2023/04/17 00:55:51;;;;;;;46.63;38.50;;;9.20;92.40;;;;;;5072460;28;20086;-45
2023/04/17 00:58:20;;;;;;;46.40;36.58;;;9.20;92.40;;;;;;5055442;28;20040;-45
2023/04/17 01:00:48;;;;;;;46.00;36.00;;;9.10;92.40;;;;;;5054825;28;20075;-45
2023/04/17 01:03:18;;;;;;;44.33;35.90;;;9.10;92.40;;;;;;5086462;28;20051;-45
2023/04/17 01:05:50;;;;;;;44.40;36.60;;;9.10;92.40;;;;;;5074668;28;20033;-45
2023/04/17 01:08:16;;;;;;;47.80;37.90;;;9.10;92.40;;;;;;5058162;28;20569;-45
2023/04/17 01:10:45;;;;;;;46.58;37.67;;;9.10;92.40;;;;;;5076045;28;20461;-50
2023/04/17 01:13:12;;;;;;;47.53;35.77;;;9.10;92.40;;;;;;5058285;28;20044;-45
2023/04/17 01:15:39;;;;;;;49.75;38.30;;;9.00;92.40;;;;;;5058219;28;20024;-44
2023/04/17 01:18:06;;;;;;;45.70;36.20;;;9.10;92.50;;;;;;5080030;28;20026;-49
2023/04/17 01:20:33;;;;;;;49.08;37.50;;;9.10;92.50;;;;;;5075729;28;20021;-47
2023/04/17 01:23:02;;;;;;;55.10;41.67;;;9.00;92.50;;;;;;5072599;28;20033;-44
2023/04/17 01:25:28;;;;;;;50.28;38.75;;;9.00;92.50;;;;;;5075817;28;20035;-45
2023/04/17 01:27:55;;;;;;;46.83;37.22;;;9.00;92.50;;;;;;5057828;28;20377;-45
2023/04/17 01:30:25;;;;;;;50.03;39.47;;;9.00;92.50;;;;;;5075362;28;20033;-46
2023/04/17 01:33:03;;;;;;;52.30;40.03;;;9.00;92.50;;;;;;5082756;28;20040;-45
2023/04/17 01:35:33;;;;;;;49.03;37.22;;;8.90;92.50;;;;;;5075566;28;20463;-45
2023/04/17 01:38:00;;;;;;;49.75;40.25;;;8.90;92.60;;;;;;5075402;28;20396;-47
2023/04/17 01:40:29;;;;;;;45.05;37.30;;;8.90;92.60;;;;;;5057276;28;20174;-45
2023/04/17 01:42:57;;;;;;;;;;;8.90;92.60;;;;;;5075797;28;20024;-46
2023/04/17 01:45:27;;;;;;;48.20;36.45;;;8.90;92.60;;;;;;5075389;28;20238;-44
2023/04/17 01:47:54;;;;;;;;;;;8.90;92.60;;;;;;5086470;28;20024;-44
2023/04/17 01:50:23;;;;;;;45.80;35.92;;;8.90;92.60;;;;;;5095439;28;19915;-47
2023/04/17 01:52:52;;;;;;;48.35;37.58;;;8.90;92.60;;;;;;5086209;28;20043;-45
2023/04/17 01:55:21;;;;;;;48.10;38.30;;;8.90;92.50;;;;;;5075173;28;20033;-44
2023/04/17 01:57:50;;;;;;;44.67;36.70;;;8.80;92.60;;;;;;5092883;28;20109;-44
2023/04/17 02:00:19;;;;;;;45.28;36.00;;;8.80;92.60;;;;;;5085902;28;20610;-45
2023/04/17 02:02:49;;;;;;;45.90;36.65;;;8.70;92.70;;;;;;5080832;28;20016;-46
2023/04/17 02:05:15;;;;;;;45.63;36.67;;;8.70;92.70;;;;;;5075176;28;20351;-45
2023/04/17 02:07:42;;;;;;;52.83;37.90;;;8.70;92.80;;;;;;5074740;28;20031;-46
2023/04/17 02:10:09;;;;;;;49.42;37.90;;;8.70;92.80;;;;;;5074961;28;20021;-45
2023/04/17 02:12:36;;;;;;;48.92;38.08;;;8.70;92.80;;;;;;5062626;28;20032;-49
2023/04/17 02:15:03;;;;;;;46.60;35.40;;;8.70;92.80;;;;;;5095010;28;20156;-48
2023/04/17 02:17:29;;;;;;;48.33;37.38;;;8.70;92.80;;;;;;5092450;28;20027;-46
2023/04/17 02:19:56;;;;;;;43.83;35.80;;;8.70;92.80;;;;;;5076805;28;20024;-45
2023/04/17 02:22:24;;;;;;;45.38;35.90;;;8.70;92.70;;;;;;5079202;28;20388;-46
2023/04/17 02:24:55;;;;;;;44.08;35.92;;;8.70;92.70;;;;;;5091373;28;20396;-45
2023/04/17 02:27:22;;;;;;;45.33;35.10;;;8.70;92.70;;;;;;5072362;28;20036;-44
2023/04/17 02:29:49;;;;;;;48.60;37.25;;;8.70;92.70;;;;;;5074443;28;20365;-50
2023/04/17 02:32:16;;;;;;;46.25;36.78;;;8.70;92.70;;;;;;5078004;28;20107;-45
2023/04/17 02:34:44;;;;;;;48.72;37.17;;;8.70;92.70;;;;;;5083366;28;20337;-46
2023/04/17 02:37:12;;;;;;;48.42;37.22;;;8.60;92.80;;;;;;5074136;28;20021;-45
2023/04/17 02:39:38;;;;;;;48.28;36.17;;;8.60;92.80;;;;;;5056445;28;20028;-46
2023/04/17 02:42:06;;;;;;;44.95;35.40;;;8.60;92.80;;;;;;5089986;28;20028;-47
2023/04/17 02:44:33;;;;;;;42.13;34.60;;;8.60;92.70;;;;;;5094567;28;20015;-46
2023/04/17 02:47:00;;;;;;;44.83;35.47;;;8.60;92.70;;;;;;5093273;28;20362;-46
2023/04/17 02:49:26;;;;;;;44.95;34.00;;;8.60;92.80;;;;;;5083573;28;20493;-45
2023/04/17 02:51:55;;;;;;;43.05;37.13;;;8.50;92.80;;;;;;5073645;28;20043;-47
2023/04/17 02:54:21;;;;;;;44.15;35.75;;;8.50;92.80;;;;;;5073474;28;20024;-44
2023/04/17 02:56:57;;;;;;;42.60;34.80;;;8.50;92.80;;;;;;5073370;28;20040;-44
2023/04/17 02:59:29;;;;;;;43.88;34.25;;;8.50;92.80;;;;;;5073439;28;20041;-45
2023/04/17 03:01:58;;;;;;;38.63;31.38;;;8.50;92.80;;;;;;5073197;28;20033;-47
2023/04/17 03:04:27;;;;;;;41.22;32.40;;;8.50;92.80;;;;;;5091664;28;20449;-45
2023/04/17 03:06:53;;;;;;;41.15;33.45;;;8.50;92.80;;;;;;5092782;28;20024;-46
2023/04/17 03:09:23;;;;;;;41.00;34.67;;;8.50;92.80;;;;;;5076209;28;20434;-50
2023/04/17 03:11:50;;;;;;;42.70;34.47;;;8.40;92.70;;;;;;5094008;28;20024;-46
2023/04/17 03:14:16;;;;;;;37.60;32.08;;;8.40;92.80;;;;;;5055833;28;20079;-43
2023/04/17 03:16:43;;;;;;;40.38;32.58;;;8.40;92.90;;;;;;5073558;28;20024;-43
2023/04/17 03:19:10;;;;;;;40.10;33.00;;;8.40;93.00;;;;;;5074504;28;20028;-47
2023/04/17 03:21:37;;;;;;;43.78;35.65;;;8.40;93.10;;;;;;5075699;28;20103;-43
2023/04/17 03:24:11;;;;;;;39.42;32.80;;;8.40;93.20;;;;;;5094456;28;20161;-46
2023/04/17 03:26:38;;;;;;;43.13;32.72;;;8.40;93.30;;;;;;5058145;28;20103;-43
2023/04/17 03:29:04;;;;;;;39.38;32.45;;;8.40;93.30;;;;;;5073124;28;20127;-45
2023/04/17 03:31:31;;;;;;;43.28;34.35;;;8.40;93.30;;;;;;5055764;28;20595;-44
2023/04/17 03:34:01;;;;;;;39.22;33.92;;;8.40;93.30;;;;;;5086514;28;20055;-43
2023/04/17 03:36:29;;;;;;;42.90;33.92;;;8.40;93.30;;;;;;5093531;28;20106;-47
2023/04/17 03:38:59;;;;;;;41.50;32.75;;;8.40;93.30;;;;;;5093474;28;20099;-44
2023/04/17 03:41:24;;;;;;;39.17;32.70;;;8.40;93.20;;;;;;5081678;28;20040;-44
2023/04/17 03:43:52;;;;;;;41.88;34.10;;;8.40;93.20;;;;;;5060999;28;20047;-44
2023/04/17 03:46:20;;;;;;;40.97;33.40;;;8.40;93.20;;;;;;5055182;28;20102;-44
2023/04/17 03:48:46;;;;;;;45.90;34.83;;;8.40;93.20;;;;;;5084630;28;20354;-47
2023/04/17 03:51:15;;;;;;;43.50;33.80;;;8.40;93.20;;;;;;5073136;28;20127;-44
2023/04/17 03:53:42;;;;;;;51.28;36.40;;;8.40;93.30;;;;;;5073100;28;20358;-46
2023/04/17 03:56:08;;;;;;;53.70;38.60;;;8.40;93.30;;;;;;5078565;28;20039;-44
2023/04/17 03:58:34;;;;;;;49.90;36.20;;;8.40;93.30;;;;;;5091279;28;20048;-45
2023/04/17 04:01:01;;;;;;;53.33;37.25;;;8.40;93.30;;;;;;5085483;28;20059;-45
2023/04/17 04:03:33;;;;;;;46.70;36.58;;;8.40;93.30;;;;;;5092360;28;20031;-45
2023/04/17 04:06:01;;;;;;;51.25;37.45;;;8.30;93.30;;;;;;5083868;28;20071;-44
2023/04/17 04:08:28;;;;;;;51.05;38.08;;;8.30;93.30;;;;;;5087404;28;20085;-44
2023/04/17 04:10:56;;;;;;;51.70;40.17;;;8.30;93.30;;;;;;5090404;28;20055;-44
2023/04/17 04:13:22;;;;;;;52.45;38.22;;;8.30;93.30;;;;;;5070402;28;20060;-46
2023/04/17 04:15:50;;;;;;;46.22;36.95;;;8.20;93.40;;;;;;5055196;28;20119;-45
2023/04/17 04:18:19;;;;;;;48.85;35.70;;;8.20;93.50;;;;;;5055371;28;20036;-44
2023/04/17 04:20:47;;;;;;;51.80;37.88;;;8.20;93.50;;;;;;5073978;28;20032;-43
2023/04/17 04:23:15;;;;;;;48.78;37.58;;;8.30;93.60;;;;;;5060814;28;20043;-44
2023/04/17 04:25:42;;;;;;;46.72;34.92;;;8.30;93.50;;;;;;5072034;28;20054;-45
2023/04/17 04:28:12;;;;;;;51.80;38.28;;;8.30;93.50;;;;;;5072334;28;20016;-43
2023/04/17 04:30:39;;;;;;;47.70;36.58;;;8.40;93.50;;;;;;5072538;28;20029;-44
2023/04/17 04:33:07;;;;;;;51.13;37.90;;;8.40;93.50;;;;;;5083802;28;20031;-43
2023/04/17 04:35:35;;;;;;;49.85;35.97;;;8.40;93.50;;;;;;5092771;28;20032;-45
2023/04/17 04:38:03;;;;;;;52.30;37.67;;;8.40;93.50;;;;;;5081997;28;20024;-44
2023/04/17 04:40:37;;;;;;;49.97;38.05;;;8.40;93.50;;;;;;5073582;28;20555;-44
2023/04/17 04:43:04;;;;;;;52.22;36.78;;;8.40;93.50;;;;;;5058761;28;20056;-45
2023/04/17 04:45:55;;;;;;;51.50;37.92;;;8.40;93.50;;;;;;5076240;28;20052;-43
2023/04/17 04:48:23;;;;;;;51.63;38.63;;;8.40;93.50;;;;;;5080182;28;20032;-44
2023/04/17 04:50:49;;;;;;;47.55;35.97;;;8.40;93.50;;;;;;5076284;28;20029;-47
2023/04/17 04:53:16;;;;;;;48.03;36.10;;;8.50;93.50;;;;;;5058765;28;20024;-44
2023/04/17 04:55:43;;;;;;;45.65;35.42;;;8.50;93.50;;;;;;5076468;28;20452;-44
2023/04/17 04:58:08;;;;;;;46.97;36.17;;;8.50;93.40;;;;;;5076215;28;20044;-45
2023/04/17 05:00:35;;;;;;;45.80;34.35;;;8.60;93.40;;;;;;5075890;28;20393;-45
2023/04/17 05:03:23;;;;;;;51.20;36.60;;;8.60;93.40;;;;;;5091356;28;20038;-43
2023/04/17 05:05:50;;;;;;;43.15;34.92;;;8.60;93.30;;;;;;5095403;28;20514;-45
2023/04/17 05:08:17;;;;;;;43.08;34.50;;;8.70;93.30;;;;;;5078566;28;20054;-45
2023/04/17 05:10:45;;;;;;;43.83;34.67;;;8.80;93.30;;;;;;5065308;28;20036;-47
2023/04/17 05:13:13;;;;;;;42.63;33.80;;;8.80;93.20;;;;;;5075846;28;20028;-44
2023/04/17 05:15:44;;;;;;;41.58;31.52;;;8.90;93.20;;;;;;5076047;28;20021;-46
2023/04/17 05:18:11;;;;;;;50.17;32.78;;;8.90;93.10;;;;;;5087115;28;20095;-45
2023/04/17 05:20:39;;;;;;;45.70;33.88;;;8.90;93.10;;;;;;5075396;28;20082;-45
2023/04/17 05:23:07;;;;;;;39.30;31.27;;;8.90;93.00;;;;;;5075633;28;20043;-45
2023/04/17 05:25:35;;;;;;;40.22;32.28;;;9.00;92.90;;;;;;5075851;28;20487;-44
2023/04/17 05:28:03;;;;;;;39.13;30.35;;;9.00;92.90;;;;;;5079565;28;20032;-45
2023/04/17 05:30:31;;;;;;;38.08;31.80;;;9.00;92.80;;;;;;5093943;28;20408;-47
2023/04/17 05:32:59;;;;;;;40.47;31.95;;;9.10;92.80;;;;;;5093850;28;20024;-44
2023/04/17 05:35:26;;;;;;;36.00;29.60;;;9.10;92.70;;;;;;5085575;28;20516;-44
2023/04/17 05:37:55;;;;;;;49.83;31.13;;;9.00;92.60;;;;;;5075779;28;20020;-44
2023/04/17 05:40:23;;;;;;;36.05;30.35;;;9.10;92.60;;;;;;5075502;28;20024;-44
2023/04/17 05:42:51;;;;;;;34.40;28.33;;;9.10;92.60;;;;;;5088764;28;20024;-44
2023/04/17 05:45:18;;;;;;;39.70;29.65;;;9.10;92.60;;;;;;5087123;28;20068;-44
2023/04/17 05:47:45;;;;;;;33.42;26.67;;;9.20;92.60;;;;;;5082074;28;20019;-44
2023/04/17 05:50:12;;;;;;;34.55;28.58;;;9.30;92.70;;;;;;5074964;28;20434;-44
2023/04/17 05:52:39;;;;;;;34.15;28.98;;;9.40;92.70;;;;;;5074986;28;20024;-49
2023/04/17 05:55:08;;;;;;;34.38;26.75;;;9.50;92.60;;;;;;5082245;28;20030;-45
2023/04/17 05:57:35;;;;;;;36.83;29.02;;;9.50;92.50;;;;;;5077885;28;20051;-44
2023/04/17 06:00:09;;;;;;;37.90;28.35;;;9.50;92.40;;;;;;5074638;28;20033;-46
2023/04/17 06:02:39;;;;;;;33.85;28.50;;;9.60;92.50;;;;;;5083943;28;20086;-45
2023/04/17 06:05:06;;;;;;;34.58;26.25;;;9.60;92.50;;;;;;5079677;28;20421;-46
2023/04/17 06:07:37;;;;;;;37.20;29.05;;;9.70;92.50;;;;;;5057168;28;20125;-45
2023/04/17 06:10:07;;;;;;;33.38;28.17;;;9.80;92.40;;;;;;5057802;28;20033;-47
2023/04/17 06:12:36;;;;;;;38.13;29.10;;;9.90;92.30;;;;;;5061215;28;20032;-45
2023/04/17 06:15:05;;;;;;;34.20;28.55;;;9.90;92.20;;;;;;5074168;28;20493;-47
2023/04/17 06:17:30;;;;;;;34.58;28.92;;;10.00;92.10;;;;;;5061106;28;20494;-49
2023/04/17 06:19:57;;;;;;;32.47;27.50;;;10.10;92.00;;;;;;5056547;28;20115;-50
2023/04/17 06:22:24;;;;;;;34.50;29.30;;;10.20;91.90;;;;;;5085349;28;20039;-44
2023/04/17 06:24:51;;;;;;;32.60;28.38;;;10.30;91.70;;;;;;5090297;28;20040;-46
2023/04/17 06:27:18;;;;;;;30.65;27.00;;;10.30;91.40;;;;;;5077742;28;20103;-46
2023/04/17 06:29:43;;;;;;;33.63;26.15;;;10.40;91.30;;;;;;5064805;28;20024;-48
2023/04/17 06:32:09;;;;;;;36.45;29.65;;;10.50;91.10;;;;;;5085555;28;20066;-49
2023/04/17 06:34:38;;;;;;;34.95;28.23;;;10.60;91.00;;;;;;5094729;28;20020;-45
2023/04/17 06:37:05;;;;;;;32.97;27.42;;;10.70;90.60;;;;;;5094593;28;20024;-46
2023/04/17 06:39:32;;;;;;;28.92;25.85;;;10.70;90.30;;;;;;5092185;28;20043;-46
2023/04/17 06:41:58;;;;;;;30.40;26.92;;;10.90;89.80;;;;;;5090408;28;20093;-46
2023/04/17 06:44:25;;;;;;;30.33;25.67;;;10.80;89.00;;;;;;5094178;28;20028;-45
2023/04/17 06:46:53;;;;;;;34.47;25.40;;;10.90;89.00;;;;;;5092738;28;20028;-48
2023/04/17 06:49:20;;;;;;;28.40;25.20;;;10.90;88.50;;;;;;5086223;28;20028;-45
2023/04/17 06:51:48;;;;;;;28.95;24.65;;;11.00;87.90;;;;;;5073864;28;20484;-44
2023/04/17 06:54:14;;;;;;;32.83;25.98;;;11.00;88.10;;;;;;5074283;28;20480;-45
2023/04/17 06:56:40;;;;;;;34.70;27.27;;;11.20;87.50;;;;;;5074026;28;20025;-46
2023/04/17 06:59:12;;;;;;;33.45;25.08;;;11.30;87.40;;;;;;5089409;28;20157;-49
2023/04/17 07:01:39;;;;;;;28.35;24.92;;;11.40;86.80;;;;;;5092509;28;20029;-47
2023/04/17 07:04:07;;;;;;;31.30;25.80;;;11.40;86.40;;;;;;5072880;28;20103;-45
2023/04/17 07:06:35;;;;;;;26.65;23.95;;;11.40;86.20;;;;;;5073526;28;20077;-45
2023/04/17 07:09:02;;;;;;;27.38;24.42;;;11.50;86.40;;;;;;5073721;28;20174;-45
2023/04/17 07:11:31;;;;;;;25.70;23.00;;;11.60;85.70;;;;;;5039507;28;20036;-48
2023/04/17 07:13:58;;;;;;;26.08;22.98;;;11.70;85.00;;;;;;5055812;28;20063;-49
2023/04/17 07:16:25;;;;;;;27.52;23.30;;;11.60;83.90;;;;;;5091457;28;20455;-45
2023/04/17 07:18:52;;;;;;;25.80;22.17;;;11.60;84.10;;;;;;5090451;28;20104;-49
2023/04/17 07:21:19;;;;;;;25.85;22.50;;;11.60;84.10;;;;;;5056189;28;20355;-50
2023/04/17 07:23:46;;;;;;;25.75;23.05;;;11.60;84.10;;;;;;5073483;28;20029;-47
2023/04/17 07:26:14;;;;;;;30.13;24.52;;;11.60;84.00;;;;;;5082142;28;20020;-46
2023/04/17 07:28:41;;;;;;;25.10;22.58;;;11.70;84.00;;;;;;5093656;28;20108;-48
2023/04/17 07:31:10;;;;;;;28.30;22.48;;;11.70;83.50;;;;;;5075613;28;20107;-47
2023/04/17 07:33:38;;;;;;;24.83;22.15;;;11.80;83.50;;;;;;5087737;28;20048;-45
2023/04/17 07:36:10;;;;;;;23.67;21.17;;;11.80;83.00;;;;;;5075643;28;20031;-44
2023/04/17 07:38:36;;;;;;;28.90;25.80;;;11.70;82.80;;;;;;5093535;28;20024;-46
2023/04/17 07:41:02;;;;;;;22.55;20.02;;;11.80;83.10;;;;;;5089932;28;20028;-46
2023/04/17 07:43:28;;;;;;;26.40;21.38;;;11.80;82.40;;;;;;5061990;28;20047;-46
2023/04/17 07:45:58;;;;;;;26.92;20.75;;;11.90;82.10;;;;;;5055662;28;20032;-46
2023/04/17 07:48:26;;;;;;;28.02;22.52;;;12.00;81.90;;;;;;5084994;28;20030;-47
2023/04/17 07:50:54;;;;;;;23.30;20.75;;;12.20;81.40;;;;;;5059031;28;20033;-46
2023/04/17 07:53:24;;;;;;;24.33;19.63;;;12.40;81.40;;;;;;5082770;28;20036;-46
2023/04/17 07:55:53;;;;;;;22.60;19.15;;;12.40;81.80;;;;;;5093248;28;20031;-46
2023/04/17 07:58:22;;;;;;;21.27;19.13;;;12.60;81.20;;;;;;5077585;28;20098;-45
2023/04/17 08:00:50;;;;;;;22.08;19.85;;;12.70;79.50;;;;;;5084514;28;20044;-47
2023/04/17 08:03:17;;;;;;;23.27;20.67;;;12.90;79.50;;;;;;5053556;28;20048;-47
2023/04/17 08:05:44;;;;;;;23.33;20.83;;;13.00;79.00;;;;;;5073172;28;20036;-46
2023/04/17 08:08:11;;;;;;;22.33;19.92;;;12.90;79.00;;;;;;5076324;28;20112;-45
2023/04/17 08:10:43;;;;;;;23.88;20.63;;;13.00;79.20;;;;;;5073305;28;20392;-45
2023/04/17 08:13:10;;;;;;;21.23;19.02;;;13.10;78.80;;;;;;5071526;28;20033;-46
2023/04/17 08:15:39;;;;;;;22.75;20.35;;;13.20;78.80;;;;;;5041294;28;20110;-47
2023/04/17 08:18:10;;;;;;;24.20;19.70;;;13.20;77.40;;;;;;5085777;28;20020;-46
2023/04/17 08:20:37;;;;;;;21.90;19.58;;;13.10;77.50;;;;;;5060808;28;20305;-49
2023/04/17 08:23:03;;;;;;;23.75;19.90;;;13.40;76.90;;;;;;5076893;28;20090;-47
2023/04/17 08:25:31;;;;;;;20.25;17.98;;;13.30;77.00;;;;;;5059408;28;20480;-45
2023/04/17 08:27:56;;;;;;;24.17;21.67;;;13.20;76.50;;;;;;5076758;28;20041;-46
2023/04/17 08:30:26;;;;;;;21.27;19.08;;;13.40;77.20;;;;;;5059089;28;20039;-46
2023/04/17 08:32:56;;;;;;;26.85;20.50;;;13.60;77.00;;;;;;5077912;28;20028;-46
2023/04/17 08:35:25;;;;;;;21.13;18.90;;;13.80;75.90;;;;;;5079954;28;20040;-46
2023/04/17 08:37:57;;;;;;;21.55;18.67;;;14.00;76.10;;;;;;5076720;28;20115;-46
2023/04/17 08:40:25;;;;;;;21.67;19.38;;;14.10;76.00;;;;;;5078643;28;20048;-46
2023/04/17 08:42:52;;;;;;;21.45;17.85;;;14.30;75.20;;;;;;5042348;28;20119;-46
2023/04/17 08:45:19;;;;;;;19.48;17.38;;;14.60;73.90;;;;;;5076244;28;20044;-46
2023/04/17 08:47:46;;;;;;;18.58;16.75;;;14.60;73.30;;;;;;5065664;28;20052;-46
2023/04/17 08:50:16;;;;;;;20.35;16.70;;;14.90;72.60;;;;;;5069376;28;20052;-46
2023/04/17 08:52:51;;;;;;;19.00;17.10;;;15.10;71.00;;;;;;5076160;28;20021;-46
2023/04/17 08:55:21;;;;;;;18.20;16.30;;;15.10;70.20;;;;;;5078660;28;20475;-46
2023/04/17 08:58:07;;;;;;;18.75;16.13;;;15.20;69.60;;;;;;5061707;28;20040;-46
2023/04/17 09:00:51;;;;;;;19.60;17.55;;;15.40;68.60;;;;;;5095660;28;20044;-46
2023/04/17 09:03:17;;;;;;;19.33;15.88;;;15.90;66.80;;;;;;5082943;28;20044;-46
2023/04/17 09:05:51;;;;;;;17.77;16.05;;;16.10;67.30;;;;;;5089842;28;20024;-47
2023/04/17 09:08:36;;;;;;;19.08;17.17;;;16.40;66.40;;;;;;5096361;28;20028;-48
2023/04/17 09:11:01;;;;;;;17.08;15.48;;;16.80;63.70;;;;;;5070552;28;20107;-49
2023/04/17 09:13:40;;;;;;;17.98;15.07;;;16.60;62.90;;;;;;5058231;28;20128;-46
2023/04/17 09:16:24;;;;;;;17.58;15.63;;;17.00;62.20;;;;;;5076117;28;20029;-46
2023/04/17 09:18:52;;;;;;;17.58;15.60;;;17.20;61.10;;;;;;5092972;28;20125;-50
2023/04/17 09:21:19;;;;;;;17.50;15.73;;;17.10;61.20;;;;;;5094639;28;20036;-47
2023/04/17 09:23:58;;;;;;;16.50;14.75;;;17.30;61.70;;;;;;5096072;28;20045;-47
2023/04/17 09:26:42;;;;;;;15.88;14.43;;;17.10;60.00;;;;;;5095250;28;20401;-46
2023/04/17 09:29:09;;;;;;;19.98;14.80;;;17.00;57.10;;;;;;5065775;28;20067;-46
2023/04/17 09:31:38;;;;;;;18.85;14.40;;;16.90;58.60;;;;;;5058550;28;20120;-46
2023/04/17 09:34:26;;;;;;;16.80;14.35;;;17.10;59.70;;;;;;5090188;28;20085;-50
2023/04/17 09:36:53;;;;;;;17.75;14.32;;;17.10;59.10;;;;;;5077018;28;20020;-48
2023/04/17 09:39:22;;;;;;;16.02;14.32;;;17.30;58.20;;;;;;5058323;28;20029;-48
2023/04/17 09:41:50;;;;;;;;;;;17.20;56.90;;;;;;5069607;28;20044;-47
2023/04/17 09:44:30;;;;;;;16.08;13.60;;;17.10;56.50;;;;;;5095811;28;19992;-46
2023/04/17 09:46:57;;;;;;;16.40;14.65;;;17.00;56.90;;;;;;5094839;28;20139;-46
2023/04/17 09:49:48;;;;;;;15.23;13.65;;;16.90;57.10;;;;;;5080899;28;20024;-52
2023/04/17 09:52:18;;;;;;;17.35;15.48;;;16.80;57.50;;;;;;5058087;28;20086;-46
2023/04/17 09:54:48;;;;;;;16.17;14.48;;;17.10;58.30;;;;;;5075307;28;20024;-46
2023/04/17 09:57:17;;;;;;;16.20;14.60;;;16.90;58.60;;;;;;5057763;28;20056;-46
2023/04/17 09:59:47;;;;;;;15.90;14.05;;;17.10;56.70;;;;;;5075540;28;20025;-48
2023/04/17 10:02:20;;;;;;;16.15;13.55;;;16.80;57.30;;;;;;5058501;28;20040;-46
2023/04/17 10:04:46;;;;;;;17.50;14.07;;;16.40;59.50;;;;;;5081808;28;20017;-53
2023/04/17 10:07:13;;;;;;;15.98;13.90;;;16.60;59.30;;;;;;5094773;28;20024;-47
2023/04/17 10:09:44;;;;;;;15.98;14.38;;;16.70;57.00;;;;;;5068565;28;20119;-48
2023/04/17 10:12:20;;;;;;;16.30;14.60;;;16.70;57.20;;;;;;5095194;28;20069;-46
2023/04/17 10:14:51;;;;;;;16.10;14.45;;;16.50;58.40;;;;;;5094863;28;20048;-48
2023/04/17 10:17:36;;;;;;;17.10;14.88;;;16.60;59.00;;;;;;5074055;28;20067;-48
2023/04/17 10:20:23;;;;;;;16.50;13.82;;;16.60;57.50;;;;;;5092833;28;20103;-47
2023/04/17 10:22:54;;;;;;;15.55;12.80;;;16.50;58.50;;;;;;5090273;28;20052;-48
2023/04/17 10:25:25;;;;;;;18.35;14.55;;;16.60;57.40;;;;;;5057645;28;20488;-49
2023/04/17 10:27:59;;;;;;;20.20;15.13;;;16.40;57.70;;;;;;5074504;28;20346;-46
2023/04/17 10:31:03;;;;;;;16.92;15.10;;;16.50;59.80;;;;;;5080481;28;20039;-47
2023/04/17 10:33:30;;;;;;;15.63;13.60;;;16.40;58.80;;;;;;5081396;28;20028;-49
2023/04/17 10:35:57;;;;;;;17.90;13.85;;;16.50;60.60;;;;;;5094678;28;20093;-48
2023/04/17 10:38:33;;;;;;;17.02;15.32;;;16.60;59.30;;;;;;5088322;28;20785;-47
2023/04/17 10:41:02;;;;;;;18.02;15.60;;;16.40;60.50;;;;;;5040554;28;20136;-46
2023/04/17 10:43:30;;;;;;;15.82;13.90;;;15.90;60.80;;;;;;5057399;28;20035;-48
2023/04/17 10:46:15;;;;;;;17.75;15.13;;;15.70;61.50;;;;;;5063874;28;20147;-48
2023/04/17 10:48:52;;;;;;;18.13;14.77;;;15.60;62.50;;;;;;5073590;28;20032;-46
2023/04/17 10:51:23;;;;;;;21.10;15.05;;;15.60;63.50;;;;;;5075754;28;20136;-47
2023/04/17 10:53:56;;;;;;;14.38;12.88;;;15.70;62.30;;;;;;5081827;28;20024;-47
2023/04/17 10:56:44;;;;;;;14.23;12.88;;;15.60;60.20;;;;;;5094173;28;20036;-48
2023/04/17 10:59:14;;;;;;;18.88;13.23;;;15.40;60.20;;;;;;5063393;28;20037;-46
2023/04/17 11:01:54;;;;;;;13.80;10.77;;;15.60;61.60;;;;;;5072140;28;20063;-49
2023/04/17 11:04:39;;;;;;;15.00;11.02;;;15.80;58.90;;;;;;5073845;28;20032;-46
2023/04/17 11:07:06;;;;;;;17.25;10.73;;;15.80;56.80;;;;;;5073965;28;20025;-51
2023/04/17 11:09:33;;;;;;;15.63;10.90;;;15.70;57.60;;;;;;5073802;28;20454;-46
2023/04/17 11:12:04;;;;;;;12.52;10.20;;;15.50;57.30;;;;;;5073548;28;20047;-47
2023/04/17 11:14:41;;;;;;;13.15;10.02;;;15.50;57.30;;;;;;5062372;28;20083;-52
2023/04/17 11:17:09;;;;;;;11.00;9.85;;;15.10;59.00;;;;;;5056408;28;20040;-50
2023/04/17 11:19:47;;;;;;;13.95;10.48;;;14.90;58.50;;;;;;5055834;28;20101;-46
2023/04/17 11:22:18;;;;;;;13.80;12.40;;;14.40;60.00;;;;;;5072938;28;20032;-48
2023/04/17 11:24:45;;;;;;;22.65;11.70;;;14.60;62.60;;;;;;5078796;28;20040;-46
2023/04/17 11:27:13;;;;;;;17.13;11.27;;;14.70;62.40;;;;;;5074717;28;20104;-48
2023/04/17 11:29:41;;;;;;;16.55;13.35;;;14.60;59.80;;;;;;5076660;28;20453;-49
2023/04/17 11:32:15;;;;;;;14.63;12.55;;;14.60;63.60;;;;;;5077185;28;20047;-49
2023/04/17 11:34:42;;;;;;;20.42;14.23;;;14.50;63.80;;;;;;5059679;28;20365;-45
2023/04/17 11:37:10;;;;;;;23.70;15.82;;;14.60;66.30;;;;;;5063846;28;20029;-48
2023/04/17 11:39:41;;;;;;;17.08;15.25;;;14.50;68.00;;;;;;5073161;28;20039;-48
2023/04/17 11:42:08;;;;;;;16.45;14.75;;;14.50;69.20;;;;;;5057926;28;20078;-47
2023/04/17 11:44:35;;;;;;;20.45;16.35;;;14.40;67.50;;;;;;5092162;28;20024;-46
2023/04/17 11:47:02;;;;;;;18.02;16.10;;;14.40;68.40;;;;;;5075457;28;20542;-46
2023/04/17 11:49:46;;;;;;;18.27;15.32;;;14.50;69.70;;;;;;5066439;28;20077;-48
2023/04/17 11:52:17;;;;;;;19.75;15.77;;;14.60;69.80;;;;;;5082148;28;20020;-47
2023/04/17 11:54:48;;;;;;;18.58;15.35;;;14.60;69.10;;;;;;5056320;28;20094;-46
2023/04/17 11:57:18;;;;;;;19.45;14.93;;;14.50;69.20;;;;;;5072999;28;20029;-46
2023/04/17 11:59:47;;;;;;;17.05;15.40;;;14.50;70.20;;;;;;5072990;28;20021;-45
2023/04/17 12:02:17;;;;;;;21.15;15.70;;;14.50;68.60;;;;;;5074950;28;20036;-46
2023/04/17 12:04:45;;;;;;;17.77;15.95;;;14.40;68.80;;;;;;5090370;28;20031;-46
2023/04/17 12:07:21;;;;;;;20.48;17.63;;;14.40;69.30;;;;;;5072787;28;20104;-46
2023/04/17 12:09:57;;;;;;;20.85;16.77;;;14.40;72.30;;;;;;5054556;28;20037;-47
2023/04/17 12:12:25;;;;;;;22.70;15.98;;;14.40;71.30;;;;;;5054627;28;20101;-46
2023/04/17 12:14:52;;;;;;;23.98;17.90;;;14.10;71.60;;;;;;5074988;28;20045;-46
2023/04/17 12:17:20;;;;;;;19.50;15.57;;;14.10;71.80;;;;;;5054682;28;20032;-46
2023/04/17 12:19:46;;;;;;;21.38;16.80;;;14.20;73.40;;;;;;5072507;28;20112;-46
2023/04/17 12:22:12;;;;;;;18.25;16.05;;;14.30;71.80;;;;;;5072514;28;20143;-46
2023/04/17 12:24:39;;;;;;;21.20;16.75;;;14.20;71.10;;;;;;5072670;28;20028;-46
2023/04/17 12:27:07;;;;;;;20.83;16.50;;;14.20;72.20;;;;;;5072869;28;20051;-46
2023/04/17 12:29:35;;;;;;;19.70;15.27;;;14.30;70.60;;;;;;5081809;28;20353;-47
2023/04/17 12:32:06;;;;;;;20.45;15.95;;;14.40;70.30;;;;;;5092865;28;20028;-48
2023/04/17 12:34:33;;;;;;;21.45;15.95;;;14.40;70.70;;;;;;5071700;28;20025;-47
2023/04/17 12:37:00;;;;;;;21.80;15.98;;;14.50;71.50;;;;;;5072831;28;20025;-45
2023/04/17 12:39:27;;;;;;;21.92;16.40;;;14.50;69.30;;;;;;5072652;28;20099;-48
2023/04/17 12:41:55;;;;;;;16.10;13.82;;;14.30;70.40;;;;;;5055079;28;20036;-45
2023/04/17 12:44:21;;;;;;;21.55;14.98;;;14.40;68.50;;;;;;5078294;28;20035;-46